createdAt,value
2023-04-10T00:00:02.164Z,15.95
2023-04-10T00:02:31.751Z,15.83
2023-04-10T00:04:59.218Z,16.01
2023-04-10T00:07:26.528Z,15.79
2023-04-10T00:09:53.345Z,16.09
2023-04-10T00:12:20.596Z,16.23
2023-04-10T00:14:47.300Z,15.86
2023-04-10T00:17:13.948Z,15.79
2023-04-10T00:19:40.674Z,16.03
2023-04-10T00:22:07.450Z,16.19
2023-04-10T00:24:34.180Z,15.99
2023-04-10T00:27:01.584Z,16.10
2023-04-10T00:29:28.216Z,16.31
2023-04-10T00:31:54.939Z,16.35
2023-04-10T00:34:21.783Z,15.78
2023-04-10T00:36:48.440Z,16.22
2023-04-10T00:39:15.454Z,16.41
2023-04-10T00:41:42.981Z,16.34
2023-04-10T00:44:09.826Z,16.30
2023-04-10T00:46:38.208Z,16.24
2023-04-10T00:49:06.276Z,16.07
2023-04-10T00:51:33.307Z,16.51
2023-04-10T00:54:02.766Z,16.32
2023-04-10T00:56:32.494Z,16.24
2023-04-10T00:58:59.544Z,15.85
2023-04-10T01:01:26.306Z,16.07
2023-04-10T01:03:54.665Z,15.89
2023-04-10T01:06:36.706Z,15.96
2023-04-10T01:09:17.543Z,15.90
2023-04-10T01:12:04.588Z,16.15
2023-04-10T01:14:54.606Z,16.36
2023-04-10T01:17:39.572Z,16.25
2023-04-10T01:20:13.598Z,16.27
2023-04-10T01:22:52.866Z,16.29
2023-04-10T01:25:33.527Z,16.35
2023-04-10T01:28:21.464Z,16.33
2023-04-10T01:30:52.702Z,16.12
2023-04-10T01:33:22.874Z,15.98
2023-04-10T01:35:52.521Z,16.15
2023-04-10T01:38:21.379Z,15.82
2023-04-10T01:40:53.250Z,15.99
2023-04-10T01:43:29.200Z,16.11
2023-04-10T01:45:58.245Z,16.01
2023-04-10T01:48:25.791Z,16.04
2023-04-10T01:50:54.365Z,16.15
2023-04-10T01:53:23.043Z,16.03
2023-04-10T01:55:50.843Z,15.83
2023-04-10T01:58:18.785Z,16.07
2023-04-10T02:00:46.452Z,16.19
2023-04-10T02:03:15.219Z,16.31
2023-04-10T02:06:14.915Z,15.83
2023-04-10T02:08:51.130Z,16.31
2023-04-10T02:11:40.298Z,16.31
2023-04-10T02:14:12.321Z,16.44
2023-04-10T02:16:41.204Z,16.62
2023-04-10T02:19:09.794Z,16.28
2023-04-10T02:21:37.770Z,16.18
2023-04-10T02:24:04.786Z,16.13
2023-04-10T02:26:58.219Z,16.45
2023-04-10T02:29:24.923Z,16.38
2023-04-10T02:31:51.733Z,16.30
2023-04-10T02:34:19.433Z,16.18
2023-04-10T02:36:46.192Z,16.10
2023-04-10T02:39:12.947Z,16.04
2023-04-10T02:41:48.530Z,16.28
2023-04-10T02:44:15.825Z,16.15
2023-04-10T02:46:44.527Z,16.22
2023-04-10T02:49:12.930Z,16.12
2023-04-10T02:51:39.707Z,15.89
2023-04-10T02:54:06.353Z,16.04
2023-04-10T02:56:35.185Z,15.86
2023-04-10T02:59:02.490Z,15.84
2023-04-10T03:01:30.904Z,15.95
2023-04-10T03:04:00.828Z,15.83
2023-04-10T03:06:31.714Z,15.73
2023-04-10T03:08:58.871Z,15.93
2023-04-10T03:11:27.287Z,15.93
2023-04-10T03:13:54.277Z,15.86
2023-04-10T03:16:21.474Z,15.75
2023-04-10T03:18:48.671Z,15.84
2023-04-10T03:21:16.631Z,15.86
2023-04-10T03:23:43.815Z,15.93
2023-04-10T03:26:11.302Z,15.69
2023-04-10T03:28:39.594Z,15.69
2023-04-10T03:31:06.621Z,15.80
2023-04-10T03:33:36.033Z,15.66
2023-04-10T03:36:04.150Z,15.70
2023-04-10T03:38:33.020Z,15.66
2023-04-10T03:40:59.891Z,15.66
2023-04-10T03:43:30.670Z,15.49
2023-04-10T03:45:58.061Z,15.48
2023-04-10T03:48:28.357Z,15.54
2023-04-10T03:50:55.571Z,15.46
2023-04-10T03:53:22.910Z,15.54
2023-04-10T03:55:52.407Z,15.46
2023-04-10T03:58:19.794Z,15.43
2023-04-10T04:00:47.053Z,15.42
2023-04-10T04:03:24.169Z,15.18
2023-04-10T04:06:02.520Z,15.28
2023-04-10T04:08:42.861Z,15.14
2023-04-10T04:11:12.380Z,15.21
2023-04-10T04:13:59.548Z,15.04
2023-04-10T04:16:49.687Z,14.99
2023-04-10T04:19:32.741Z,15.09
2023-04-10T04:22:23.977Z,15.02
2023-04-10T04:25:11.502Z,15.05
2023-04-10T04:27:57.713Z,14.99
2023-04-10T04:30:30.504Z,15.22
2023-04-10T04:33:31.825Z,15.01
2023-04-10T04:36:02.403Z,15.19
2023-04-10T04:38:55.266Z,15.31
2023-04-10T04:41:44.764Z,15.19
2023-04-10T04:44:21.999Z,15.03
2023-04-10T04:47:11.580Z,14.98
2023-04-10T04:50:01.077Z,15.18
2023-04-10T04:53:00.726Z,15.07
2023-04-10T04:55:33.373Z,15.11
2023-04-10T04:58:15.168Z,14.90
2023-04-10T05:00:54.671Z,15.14
2023-04-10T05:03:29.320Z,14.93
2023-04-10T05:06:23.096Z,14.97
2023-04-10T05:09:13.015Z,14.85
2023-04-10T05:12:02.406Z,14.75
2023-04-10T05:14:48.983Z,14.80
2023-04-10T05:17:28.551Z,14.76
2023-04-10T05:20:13.885Z,14.89
2023-04-10T05:22:54.716Z,14.82
2023-04-10T05:25:44.609Z,15.28
2023-04-10T05:28:32.790Z,15.06
2023-04-10T05:31:14.124Z,14.89
2023-04-10T05:33:55.486Z,15.10
2023-04-10T05:36:32.903Z,15.21
2023-04-10T05:39:28.476Z,15.07
2023-04-10T05:42:07.858Z,15.26
2023-04-10T05:44:45.771Z,15.29
2023-04-10T05:47:31.251Z,15.23
2023-04-10T05:50:18.262Z,15.36
2023-04-10T05:53:14.111Z,15.33
2023-04-10T05:55:59.522Z,15.20
2023-04-10T05:58:46.551Z,15.31
2023-04-10T06:01:35.660Z,15.65
2023-04-10T06:04:03.804Z,15.75
2023-04-10T06:06:31.450Z,15.44
2023-04-10T06:08:58.287Z,15.51
2023-04-10T06:11:24.945Z,15.61
2023-04-10T06:13:54.718Z,15.36
2023-04-10T06:16:26.884Z,15.64
2023-04-10T06:18:54.803Z,15.59
2023-04-10T06:21:21.689Z,15.59
2023-04-10T06:23:48.482Z,15.55
2023-04-10T06:26:15.476Z,15.58
2023-04-10T06:28:42.278Z,15.51
2023-04-10T06:31:09.111Z,15.54
2023-04-10T06:33:38.930Z,15.89
2023-04-10T06:36:08.788Z,16.08
2023-04-10T06:38:42.294Z,15.98
2023-04-10T06:41:09.152Z,15.59
2023-04-10T06:43:37.376Z,16.14
2023-04-10T06:46:05.038Z,16.15
2023-04-10T06:48:32.422Z,15.74
2023-04-10T06:51:02.741Z,16.16
2023-04-10T06:53:30.177Z,16.53
2023-04-10T06:55:57.209Z,16.79
2023-04-10T06:58:24.724Z,16.51
2023-04-10T07:00:51.568Z,16.84
2023-04-10T07:03:18.487Z,16.52
2023-04-10T07:05:45.415Z,16.19
2023-04-10T07:08:12.047Z,16.75
2023-04-10T07:10:38.691Z,16.99
2023-04-10T07:13:05.340Z,16.61
2023-04-10T07:15:32.637Z,16.80
2023-04-10T07:17:59.220Z,16.85
2023-04-10T07:20:26.041Z,17.48
2023-04-10T07:22:52.907Z,17.68
2023-04-10T07:25:19.531Z,17.29
2023-04-10T07:27:46.237Z,18.16
2023-04-10T07:30:14.045Z,18.05
2023-04-10T07:32:42.449Z,18.30
2023-04-10T07:35:09.791Z,18.13
2023-04-10T07:37:36.518Z,17.87
2023-04-10T07:40:03.631Z,18.90
2023-04-10T07:42:30.569Z,19.58
2023-04-10T07:44:57.348Z,20.22
2023-04-10T07:47:24.528Z,20.70
2023-04-10T07:49:51.555Z,19.78
2023-04-10T07:52:18.409Z,19.52
2023-04-10T07:54:45.488Z,19.61
2023-04-10T07:57:12.087Z,19.45
2023-04-10T07:59:38.983Z,19.51
2023-04-10T08:02:06.317Z,20.10
2023-04-10T08:04:33.397Z,20.06
2023-04-10T08:07:00.303Z,19.80
2023-04-10T08:09:26.942Z,19.34
2023-04-10T08:11:53.625Z,19.60
2023-04-10T08:14:20.276Z,19.67
2023-04-10T08:16:46.988Z,19.84
2023-04-10T08:19:14.088Z,20.25
2023-04-10T08:21:40.775Z,20.24
2023-04-10T08:24:07.509Z,20.67
2023-04-10T08:26:34.067Z,21.14
2023-04-10T08:29:03.080Z,21.01
2023-04-10T08:31:30.264Z,21.00
2023-04-10T08:34:00.154Z,21.24
2023-04-10T08:36:27.781Z,20.74
2023-04-10T08:38:55.573Z,20.29
2023-04-10T08:41:22.199Z,20.57
2023-04-10T08:43:50.830Z,20.53
2023-04-10T08:46:17.663Z,21.13
2023-04-10T08:49:00.009Z,21.05
2023-04-10T08:51:42.914Z,20.21
2023-04-10T08:54:14.396Z,20.72
2023-04-10T08:56:44.327Z,21.02
2023-04-10T08:59:11.216Z,20.87
2023-04-10T09:01:40.308Z,21.05
2023-04-10T09:04:07.319Z,21.63
2023-04-10T09:06:34.622Z,21.94
2023-04-10T09:12:07.026Z,21.71
2023-04-10T09:14:35.793Z,21.53
2023-04-10T09:17:28.690Z,21.49
2023-04-10T09:19:56.734Z,21.44
2023-04-10T09:22:34.558Z,21.45
2023-04-10T09:25:03.164Z,21.19
2023-04-10T09:27:35.653Z,21.36
2023-04-10T09:30:03.671Z,21.40
2023-04-10T09:32:41.968Z,20.68
2023-04-10T09:35:11.360Z,20.77
2023-04-10T09:37:38.618Z,20.95
2023-04-10T09:40:06.467Z,21.56
2023-04-10T09:42:37.423Z,21.57
2023-04-10T09:45:05.559Z,21.30
2023-04-10T09:47:33.116Z,21.64
2023-04-10T09:50:01.043Z,21.27
2023-04-10T09:52:33.182Z,22.06
2023-04-10T09:55:05.061Z,22.83
2023-04-10T09:57:33.734Z,22.38
2023-04-10T10:00:06.867Z,21.99
2023-04-10T10:02:37.290Z,21.46
2023-04-10T10:05:05.385Z,22.17
2023-04-10T10:07:32.429Z,23.08
2023-04-10T10:10:00.648Z,22.70
2023-04-10T10:12:48.921Z,23.68
2023-04-10T10:15:36.658Z,23.55
2023-04-10T10:18:34.143Z,23.58
2023-04-10T10:21:01.200Z,23.85
2023-04-10T10:23:28.830Z,22.96
2023-04-10T10:25:58.813Z,23.51
2023-04-10T10:28:27.937Z,23.33
2023-04-10T10:30:55.751Z,23.58
2023-04-10T10:33:23.216Z,23.10
2023-04-10T10:35:50.297Z,23.65
2023-04-10T10:38:18.877Z,24.61
2023-04-10T10:40:57.390Z,24.28
2023-04-10T10:43:49.686Z,24.72
2023-04-10T10:46:39.583Z,24.22
2023-04-10T10:49:06.397Z,24.97
2023-04-10T10:51:50.725Z,23.89
2023-04-10T10:54:34.550Z,24.20
2023-04-10T10:57:09.204Z,24.02
2023-04-10T10:59:48.124Z,24.91
2023-04-10T11:02:19.813Z,25.11
2023-04-10T11:04:50.677Z,24.59
2023-04-10T11:07:18.147Z,25.75
2023-04-10T11:09:45.854Z,25.63
2023-04-10T11:12:12.468Z,25.40
2023-04-10T11:14:41.974Z,25.17
2023-04-10T11:17:10.864Z,24.60
2023-04-10T11:20:00.796Z,23.68
2023-04-10T11:22:28.129Z,24.42
2023-04-10T11:25:00.138Z,24.73
2023-04-10T11:27:41.933Z,24.37
2023-04-10T11:30:44.489Z,25.18
2023-04-10T11:33:19.269Z,25.66
2023-04-10T11:35:46.445Z,25.10
2023-04-10T11:38:15.780Z,24.97
2023-04-10T11:41:06.788Z,24.91
2023-04-10T11:43:35.082Z,25.74
2023-04-10T11:46:07.769Z,25.81
2023-04-10T11:48:35.523Z,26.20
2023-04-10T11:51:12.691Z,25.30
2023-04-10T11:53:42.722Z,25.13
2023-04-10T11:56:21.264Z,25.45
2023-04-10T11:58:50.961Z,25.07
2023-04-10T12:01:21.353Z,25.50
2023-04-10T12:03:48.178Z,25.61
2023-04-10T12:06:15.650Z,25.73
2023-04-10T12:08:51.113Z,24.85
2023-04-10T12:11:20.536Z,24.57
2023-04-10T12:13:48.324Z,24.69
2023-04-10T12:16:15.604Z,25.07
2023-04-10T12:18:42.802Z,24.45
2023-04-10T12:21:09.592Z,24.40
2023-04-10T12:23:41.005Z,24.53
2023-04-10T12:26:18.919Z,24.34
2023-04-10T12:28:55.992Z,23.70
2023-04-10T12:31:51.809Z,23.63
2023-04-10T12:34:18.658Z,23.86
2023-04-10T12:36:52.666Z,23.94
2023-04-10T12:39:24.466Z,23.63
2023-04-10T12:41:51.933Z,23.49
2023-04-10T12:44:19.244Z,23.69
2023-04-10T12:46:46.378Z,23.26
2023-04-10T12:49:14.880Z,23.36
2023-04-10T12:51:50.286Z,23.02
2023-04-10T12:54:46.476Z,23.73
2023-04-10T12:57:27.660Z,24.08
2023-04-10T12:59:55.730Z,24.23
2023-04-10T13:02:23.672Z,23.89
2023-04-10T13:04:50.369Z,23.49
2023-04-10T13:07:17.190Z,23.51
2023-04-10T13:09:43.869Z,23.42
2023-04-10T13:12:11.075Z,23.24
2023-04-10T13:14:37.918Z,23.23
2023-04-10T13:17:07.262Z,23.75
2023-04-10T13:19:34.135Z,23.10
2023-04-10T13:22:01.940Z,23.60
2023-04-10T13:24:31.577Z,24.12
2023-04-10T13:27:01.462Z,24.11
2023-04-10T13:29:28.998Z,24.16
2023-04-10T13:31:55.900Z,24.10
2023-04-10T13:34:22.809Z,24.09
2023-04-10T13:36:50.116Z,23.84
2023-04-10T13:39:18.596Z,23.22
2023-04-10T13:41:45.311Z,23.58
2023-04-10T13:44:12.030Z,23.67
2023-04-10T13:46:38.721Z,23.56
2023-04-10T13:49:05.466Z,22.71
2023-04-10T13:51:32.305Z,22.85
2023-04-10T13:54:00.398Z,22.65
2023-04-10T13:56:27.058Z,22.44
2023-04-10T13:58:53.953Z,22.99
2023-04-10T14:01:21.235Z,23.06
2023-04-10T14:03:48.838Z,22.18
2023-04-10T14:06:16.214Z,22.14
2023-04-10T14:08:42.935Z,22.43
2023-04-10T14:11:11.110Z,22.93
2023-04-10T14:13:37.748Z,23.13
2023-04-10T14:16:04.684Z,23.07
2023-04-10T14:18:31.486Z,22.91
2023-04-10T14:20:58.963Z,22.78
2023-04-10T14:23:28.196Z,23.18
2023-04-10T14:26:02.609Z,23.13
2023-04-10T14:28:40.425Z,22.55
2023-04-10T14:31:08.132Z,22.59
2023-04-10T14:33:43.084Z,22.53
2023-04-10T14:36:11.803Z,21.87
2023-04-10T14:38:42.848Z,22.05
2023-04-10T14:41:17.731Z,21.66
2023-04-10T14:43:45.083Z,21.09
2023-04-10T14:46:17.554Z,21.75
2023-04-10T14:48:45.046Z,21.39
2023-04-10T14:51:13.156Z,21.40
2023-04-10T14:53:40.186Z,21.28
2023-04-10T14:56:12.276Z,21.51
2023-04-10T14:58:39.804Z,21.71
2023-04-10T15:01:11.709Z,22.09
2023-04-10T15:03:41.487Z,22.00
2023-04-10T15:06:08.185Z,22.13
2023-04-10T15:08:34.939Z,22.67
2023-04-10T15:11:05.022Z,22.68
2023-04-10T15:13:32.293Z,22.51
2023-04-10T15:16:00.639Z,22.36
2023-04-10T15:18:27.911Z,22.36
2023-04-10T15:20:56.333Z,22.41
2023-04-10T15:23:31.926Z,21.73
2023-04-10T15:26:00.027Z,22.50
2023-04-10T15:28:28.362Z,22.40
2023-04-10T15:30:57.974Z,22.24
2023-04-10T15:33:31.253Z,22.12
2023-04-10T15:36:01.014Z,21.99
2023-04-10T15:38:29.000Z,21.54
2023-04-10T15:40:59.246Z,21.53
2023-04-10T15:43:28.814Z,21.96
2023-04-10T15:45:59.507Z,21.85
2023-04-10T15:48:26.528Z,21.35
2023-04-10T15:50:53.629Z,21.10
2023-04-10T15:53:24.675Z,21.11
2023-04-10T15:55:56.963Z,21.16
2023-04-10T15:58:48.070Z,21.16
2023-04-10T16:01:15.377Z,21.02
2023-04-10T16:03:42.715Z,20.83
2023-04-10T16:06:10.016Z,21.05
2023-04-10T16:08:40.886Z,21.14
2023-04-10T16:11:08.399Z,21.35
2023-04-10T16:13:36.983Z,21.06
2023-04-10T16:16:08.646Z,20.59
2023-04-10T16:18:35.794Z,20.60
2023-04-10T16:21:04.329Z,20.49
2023-04-10T16:23:31.544Z,20.22
2023-04-10T16:25:58.854Z,19.81
2023-04-10T16:28:26.329Z,19.71
2023-04-10T16:30:53.541Z,19.48
2023-04-10T16:33:20.410Z,19.30
2023-04-10T16:35:48.447Z,19.36
2023-04-10T16:38:15.122Z,19.25
2023-04-10T16:40:41.895Z,19.11
2023-04-10T16:43:08.561Z,19.35
2023-04-10T16:45:35.641Z,19.50
2023-04-10T16:48:02.306Z,19.53
2023-04-10T16:50:29.199Z,19.21
2023-04-10T16:52:56.381Z,19.21
2023-04-10T16:55:22.989Z,19.28
2023-04-10T16:57:50.914Z,19.36
2023-04-10T17:00:18.258Z,19.19
2023-04-10T17:02:45.530Z,19.31
2023-04-10T17:05:15.898Z,19.19
2023-04-10T17:07:44.574Z,19.24
2023-04-10T17:10:11.976Z,19.20
2023-04-10T17:12:39.092Z,19.08
2023-04-10T17:15:06.452Z,19.56
2023-04-10T17:17:34.180Z,19.57
2023-04-10T17:20:01.101Z,19.57
2023-04-10T17:22:27.709Z,19.61
2023-04-10T17:24:54.252Z,19.59
2023-04-10T17:27:20.900Z,19.54
2023-04-10T17:29:47.804Z,19.15
2023-04-10T17:32:14.352Z,19.40
2023-04-10T17:34:41.079Z,20.24
2023-04-10T17:37:07.753Z,20.07
2023-04-10T17:39:34.344Z,19.80
2023-04-10T17:42:01.541Z,19.60
2023-04-10T17:44:28.253Z,19.48
2023-04-10T17:46:55.229Z,19.57
2023-04-10T17:49:22.291Z,19.69
2023-04-10T17:51:49.860Z,19.63
2023-04-10T17:54:16.528Z,19.70
2023-04-10T17:56:43.186Z,19.96
2023-04-10T17:59:11.136Z,20.01
2023-04-10T18:01:37.984Z,20.31
2023-04-10T18:04:05.803Z,20.34
2023-04-10T18:06:33.049Z,19.59
2023-04-10T18:09:00.376Z,19.46
2023-04-10T18:11:27.225Z,19.61
2023-04-10T18:13:53.974Z,19.72
2023-04-10T18:16:20.685Z,19.52
2023-04-10T18:18:47.460Z,19.20
2023-04-10T18:21:15.402Z,18.80
2023-04-10T18:23:42.262Z,18.79
2023-04-10T18:26:09.313Z,18.58
2023-04-10T18:28:36.508Z,18.89
2023-04-10T18:31:03.294Z,18.72
2023-04-10T18:33:30.723Z,19.11
2023-04-10T18:35:59.182Z,18.85
2023-04-10T18:38:26.783Z,19.49
2023-04-10T18:40:57.621Z,19.25
2023-04-10T18:43:25.661Z,18.59
2023-04-10T18:45:52.374Z,18.69
2023-04-10T18:48:19.455Z,17.97
2023-04-10T18:50:46.423Z,18.41
2023-04-10T18:53:13.564Z,18.59
2023-04-10T18:55:40.380Z,18.27
2023-04-10T18:58:07.446Z,18.72
2023-04-10T19:00:34.358Z,18.14
2023-04-10T19:03:01.348Z,18.49
2023-04-10T19:05:32.500Z,18.16
2023-04-10T19:08:04.205Z,18.57
2023-04-10T19:10:32.602Z,18.75
2023-04-10T19:12:59.356Z,18.83
2023-04-10T19:15:27.140Z,18.80
2023-04-10T19:17:54.874Z,18.86
2023-04-10T19:20:52.151Z,18.45
2023-04-10T19:23:09.694Z,18.54
2023-04-10T19:25:36.873Z,18.86
2023-04-10T19:28:03.984Z,18.58
2023-04-10T19:30:31.142Z,18.16
2023-04-10T19:32:57.997Z,18.68
2023-04-10T19:35:24.732Z,18.89
2023-04-10T19:37:51.442Z,18.59
2023-04-10T19:40:20.096Z,18.62
2023-04-10T19:42:46.831Z,18.70
2023-04-10T19:45:13.609Z,18.14
2023-04-10T19:47:40.626Z,18.23
2023-04-10T19:50:08.124Z,18.43
2023-04-10T19:52:34.962Z,18.27
2023-04-10T19:55:02.027Z,18.45
2023-04-10T19:57:31.073Z,17.94
2023-04-10T19:59:58.880Z,17.83
2023-04-10T20:02:26.994Z,17.97
2023-04-10T20:04:54.110Z,18.34
2023-04-10T20:07:21.072Z,18.46
2023-04-10T20:09:47.769Z,17.93
2023-04-10T20:12:16.147Z,17.97
2023-04-10T20:14:44.753Z,18.02
2023-04-10T20:17:12.360Z,18.27
2023-04-10T20:19:39.539Z,18.04
2023-04-10T20:22:07.303Z,18.41
2023-04-10T20:24:33.906Z,18.46
2023-04-10T20:27:01.542Z,18.58
2023-04-10T20:29:28.378Z,18.16
2023-04-10T20:31:55.570Z,18.52
2023-04-10T20:34:22.338Z,17.97
2023-04-10T20:36:49.165Z,17.96
2023-04-10T20:39:16.532Z,17.83
2023-04-10T20:41:43.219Z,17.54
2023-04-10T20:44:09.831Z,17.56
2023-04-10T20:46:36.564Z,17.60
2023-04-10T20:49:03.508Z,17.47
2023-04-10T20:51:33.873Z,16.88
2023-04-10T20:54:00.751Z,17.39
2023-04-10T20:56:36.753Z,17.10
2023-04-10T20:59:09.279Z,17.46
2023-04-10T21:01:36.117Z,17.19
2023-04-10T21:04:02.974Z,17.32
2023-04-10T21:06:30.213Z,17.25
2023-04-10T21:08:56.939Z,16.57
2023-04-10T21:11:23.581Z,16.78
2023-04-10T21:13:50.391Z,17.10
2023-04-10T21:16:16.985Z,17.22
2023-04-10T21:18:43.654Z,17.75
2023-04-10T21:21:11.255Z,17.69
2023-04-10T21:23:37.972Z,17.82
2023-04-10T21:26:06.340Z,17.68
2023-04-10T21:28:33.253Z,18.16
2023-04-10T21:31:00.392Z,17.44
2023-04-10T21:33:27.016Z,17.71
2023-04-10T21:35:53.982Z,17.17
2023-04-10T21:38:20.942Z,17.53
2023-04-10T21:40:51.944Z,16.61
2023-04-10T21:43:19.679Z,17.37
2023-04-10T21:45:46.532Z,17.73
2023-04-10T21:48:13.525Z,17.34
2023-04-10T21:50:40.813Z,17.58
2023-04-10T21:53:07.553Z,17.41
2023-04-10T21:55:34.334Z,17.54
2023-04-10T21:58:01.260Z,17.95
2023-04-10T22:00:29.076Z,17.86
2023-04-10T22:02:57.509Z,17.79
2023-04-10T22:05:24.637Z,18.23
2023-04-10T22:07:52.122Z,17.76
2023-04-10T22:10:20.276Z,17.82
2023-04-10T22:12:48.774Z,18.36
2023-04-10T22:15:16.533Z,18.18
2023-04-10T22:17:43.505Z,17.80
2023-04-10T22:20:10.966Z,18.15
2023-04-10T22:22:37.962Z,18.05
2023-04-10T22:25:05.544Z,17.95
2023-04-10T22:27:32.913Z,18.12
2023-04-10T22:30:03.841Z,17.96
2023-04-10T22:32:32.259Z,18.23
2023-04-10T22:35:00.717Z,18.05
2023-04-10T22:37:27.928Z,18.10
2023-04-10T22:39:57.400Z,17.30
2023-04-10T22:42:24.170Z,17.86
2023-04-10T22:44:51.086Z,18.21
2023-04-10T22:47:18.024Z,17.60
2023-04-10T22:49:45.836Z,17.22
2023-04-10T22:52:13.660Z,17.35
2023-04-10T22:54:40.377Z,17.39
2023-04-10T22:57:20.386Z,17.46
2023-04-10T22:59:50.749Z,17.13
2023-04-10T23:02:17.548Z,17.65
2023-04-10T23:04:44.407Z,17.73
2023-04-10T23:07:11.006Z,16.94
2023-04-10T23:09:37.719Z,16.99
2023-04-10T23:12:04.629Z,17.26
2023-04-10T23:14:34.766Z,17.32
2023-04-10T23:17:01.977Z,17.60
2023-04-10T23:19:28.865Z,17.42
2023-04-10T23:21:55.723Z,17.31
2023-04-10T23:24:22.464Z,17.30
2023-04-10T23:26:49.557Z,17.34
2023-04-10T23:29:16.504Z,17.59
2023-04-10T23:31:44.160Z,17.08
2023-04-10T23:34:11.638Z,17.23
2023-04-10T23:36:40.405Z,17.36
2023-04-10T23:39:07.031Z,17.74
2023-04-10T23:41:33.869Z,17.83
2023-04-10T23:44:00.645Z,17.31
2023-04-10T23:46:27.529Z,17.34
2023-04-10T23:48:55.374Z,17.07
2023-04-10T23:51:22.062Z,17.05
2023-04-10T23:53:49.035Z,16.82
2023-04-10T23:56:15.804Z,16.85
2023-04-10T23:58:42.434Z,16.76
